Time;durP1;ratioP1;P1;durP2;ratioP2;P2;SDS_P1;SDS_P2;PMS_P1;PMS_P2;Temp;Humidity;BMP_temperature;BMP_pressure;BME280_temperature;BME280_humidity;BME280_pressure;Samples;Min_cycle;Max_cycle;Signal;HPM_P1;HPM_P2
2023/05/29 00:00:52;;;;;;;;;;;9.00;57.00;;;;;;4078409;29;19954;-86
2023/05/29 00:03:13;;;;;;;;;;;9.00;56.90;;;;;;4068010;29;20326;-87
2023/05/29 00:05:44;;;;;;;;;;;9.00;57.10;;;;;;4065989;29;20396;-85
2023/05/29 00:08:06;;;;;;;;;;;9.10;56.90;;;;;;4082679;28;19923;-86
2023/05/29 00:10:27;;;;;;;;;;;9.00;57.00;;;;;;4078151;29;19919;-86
2023/05/29 00:12:51;;;;;;;;;;;8.90;57.10;;;;;;4080196;29;19919;-85
2023/05/29 00:15:30;;;;;;;;;;;8.80;57.10;;;;;;4074857;29;19921;-86
2023/05/29 00:17:51;;;;;;;;;;;8.80;57.20;;;;;;4069989;29;20096;-85
2023/05/29 00:20:12;;;;;;;;;;;8.80;57.10;;;;;;4066608;29;19920;-86
2023/05/29 00:22:37;;;;;;;;;;;8.80;57.20;;;;;;4080717;29;20008;-87
2023/05/29 00:24:57;;;;;;;;;;;8.70;57.20;;;;;;4078029;29;19923;-86
2023/05/29 00:27:18;;;;;;;;;;;8.80;57.40;;;;;;4083323;29;19993;-87
2023/05/29 00:29:39;;;;;;;;;;;8.70;57.50;;;;;;4091407;28;19981;-86
2023/05/29 00:32:03;;;;;;;;;;;8.70;57.50;;;;;;4077921;29;19923;-87
2023/05/29 00:34:35;;;;;;;;;;;8.60;57.40;;;;;;4081011;29;20193;-86
2023/05/29 00:36:56;;;;;;;;;;;8.60;57.30;;;;;;4070374;29;19945;-86
2023/05/29 00:42:22;;;;;;;;;;;8.60;57.30;;;;;;4076851;29;19982;-86
2023/05/29 00:44:43;;;;;;;;;;;8.50;57.80;;;;;;4093128;29;19998;-86
2023/05/29 00:47:04;;;;;;;;;;;8.50;58.20;;;;;;4077686;29;19915;-86
2023/05/29 00:49:25;;;;;;;;;;;8.50;57.50;;;;;;4080311;29;19946;-85
2023/05/29 00:51:46;;;;;;;;;;;8.40;57.50;;;;;;4067198;29;20054;-85
2023/05/29 00:54:07;;;;;;;;;;;8.40;57.40;;;;;;4076062;29;19931;-85
2023/05/29 00:56:28;;;;;;;;;;;8.30;57.40;;;;;;4078074;29;20373;-85
2023/05/29 00:58:49;;;;;;;;;;;8.30;57.40;;;;;;4078759;29;20434;-86
2023/05/29 01:01:11;;;;;;;;;;;8.30;57.30;;;;;;4072221;29;19915;-86
2023/05/29 01:03:32;;;;;;;;;;;8.20;57.10;;;;;;4079027;29;19914;-85
2023/05/29 01:05:52;;;;;;;;;;;8.20;57.30;;;;;;4083728;29;19980;-86
2023/05/29 01:08:13;;;;;;;;;;;8.20;56.70;;;;;;4078989;29;19919;-84
2023/05/29 01:10:34;;;;;;;;;;;8.10;56.90;;;;;;4077471;29;19966;-86
2023/05/29 01:13:10;;;;;;;;;;;8.10;57.20;;;;;;4078392;29;19915;-85
2023/05/29 01:15:34;;;;;;;;;;;8.10;57.20;;;;;;4089774;28;19966;-85
2023/05/29 01:18:04;;;;;;;;;;;8.00;57.20;;;;;;4069011;29;19915;-85
2023/05/29 01:20:44;;;;;;;;;;;8.00;57.30;;;;;;4093127;28;19925;-84
2023/05/29 01:23:11;;;;;;;;;;;8.00;57.40;;;;;;4078042;29;19921;-86
2023/05/29 01:25:35;;;;;;;;;;;8.00;57.50;;;;;;4082428;29;19962;-85
2023/05/29 01:28:00;;;;;;;;;;;7.90;57.60;;;;;;4080296;29;19997;-86
2023/05/29 01:30:21;;;;;;;;;;;7.90;57.70;;;;;;4079378;29;19934;-86
2023/05/29 01:32:42;;;;;;;;;;;7.90;57.70;;;;;;4080447;29;19926;-85
2023/05/29 01:35:04;;;;;;;;;;;7.80;57.80;;;;;;4081549;29;19922;-86
2023/05/29 01:37:25;;;;;;;;;;;7.80;57.70;;;;;;4067927;29;19950;-86
2023/05/29 01:39:45;;;;;;;;;;;7.80;57.60;;;;;;4086034;29;20015;-87
2023/05/29 01:42:07;;;;;;;;;;;7.80;57.70;;;;;;4079830;29;19926;-85
2023/05/29 01:44:28;;;;;;;;;;;7.70;57.60;;;;;;4079955;29;20382;-86
2023/05/29 01:46:49;;;;;;;;;;;7.70;57.80;;;;;;4081116;29;19923;-86
2023/05/29 01:49:11;;;;;;;;;;;7.80;58.00;;;;;;4083288;29;20386;-85
2023/05/29 01:51:32;;;;;;;;;;;7.70;57.80;;;;;;4069433;29;19954;-85
2023/05/29 01:53:53;;;;;;;;;;;7.60;57.60;;;;;;4077422;29;19922;-86
2023/05/29 01:56:14;;;;;;;;;;;7.60;57.40;;;;;;4081718;29;19919;-85
2023/05/29 01:58:36;;;;;;;;;;;7.60;57.50;;;;;;4067302;29;19926;-85
2023/05/29 02:00:57;;;;;;;;;;;7.50;57.70;;;;;;4077669;29;19923;-85
2023/05/29 02:03:18;;;;;;;;;;;7.50;57.40;;;;;;4079579;29;19929;-85
2023/05/29 02:05:39;;;;;;;;;;;7.50;57.60;;;;;;4093474;28;19934;-87
2023/05/29 02:08:00;;;;;;;;;;;7.50;57.70;;;;;;4070970;29;19948;-87
2023/05/29 02:10:21;;;;;;;;;;;7.40;58.40;;;;;;4083554;29;19927;-87
2023/05/29 02:12:41;;;;;;;;;;;7.40;57.90;;;;;;4073040;29;19919;-88
2023/05/29 02:15:02;;;;;;;;;;;7.40;57.90;;;;;;4105930;29;19922;-85
2023/05/29 02:17:24;;;;;;;;;;;7.40;57.70;;;;;;4092953;29;19926;-87
2023/05/29 02:19:45;;;;;;;;;;;7.40;57.60;;;;;;4074630;29;19927;-85
2023/05/29 02:22:06;;;;;;;;;;;7.40;57.50;;;;;;4081735;29;19921;-85
2023/05/29 02:24:27;;;;;;;;;;;7.30;57.70;;;;;;4074102;29;20336;-85
2023/05/29 02:26:50;;;;;;;;;;;7.30;57.90;;;;;;4070313;29;19989;-85
2023/05/29 02:29:10;;;;;;;;;;;7.30;58.00;;;;;;4069413;29;20011;-86
2023/05/29 02:31:31;;;;;;;;;;;7.30;58.00;;;;;;4081425;29;19915;-86
2023/05/29 02:33:52;;;;;;;;;;;7.40;57.90;;;;;;4067162;29;19916;-86
2023/05/29 02:36:13;;;;;;;;;;;7.30;58.20;;;;;;4082395;29;19915;-86
2023/05/29 02:38:34;;;;;;;;;;;7.30;58.30;;;;;;4082269;29;19915;-87
2023/05/29 02:40:55;;;;;;;;;;;7.30;58.20;;;;;;4098887;28;19922;-87
2023/05/29 02:43:15;;;;;;;;;;;7.20;58.20;;;;;;4072081;29;19915;-88
2023/05/29 02:45:36;;;;;;;;;;;7.20;58.30;;;;;;4071419;29;19926;-87
2023/05/29 02:47:57;;;;;;;;;;;7.20;58.30;;;;;;4097274;28;20728;-87
2023/05/29 02:50:18;;;;;;;;;;;7.20;58.40;;;;;;4067462;29;20419;-87
2023/05/29 02:52:39;;;;;;;;;;;7.20;58.50;;;;;;4078455;29;19915;-86
2023/05/29 02:55:00;;;;;;;;;;;7.20;58.40;;;;;;4086763;29;21852;-88
2023/05/29 02:57:21;;;;;;;;;;;7.20;58.60;;;;;;4078368;29;19911;-86
2023/05/29 02:59:44;;;;;;;;;;;7.20;58.50;;;;;;4083454;29;19929;-87
2023/05/29 03:02:05;;;;;;;;;;;7.10;58.50;;;;;;4068731;29;20387;-85
2023/05/29 03:04:27;;;;;;;;;;;7.10;58.60;;;;;;4069928;29;20415;-87
2023/05/29 03:06:48;;;;;;;;;;;7.10;58.40;;;;;;4071447;29;19947;-87
2023/05/29 03:09:09;;;;;;;;;;;7.10;58.30;;;;;;4068216;29;20375;-86
2023/05/29 03:11:30;;;;;;;;;;;7.10;58.50;;;;;;4064462;29;19930;-85
2023/05/29 03:13:51;;;;;;;;;;;7.10;58.70;;;;;;4083284;29;19923;-85
2023/05/29 03:16:12;;;;;;;;;;;7.10;59.00;;;;;;4091641;28;19929;-86
2023/05/29 03:18:33;;;;;;;;;;;7.10;59.20;;;;;;4069394;29;19915;-85
2023/05/29 03:20:54;;;;;;;;;;;7.10;59.10;;;;;;4086671;29;20025;-88
2023/05/29 03:23:15;;;;;;;;;;;7.00;58.90;;;;;;4072809;29;20205;-86
2023/05/29 03:25:36;;;;;;;;;;;7.10;59.10;;;;;;4092904;28;19962;-86
2023/05/29 03:27:57;;;;;;;;;;;7.10;59.40;;;;;;4080042;29;20051;-88
2023/05/29 03:30:19;;;;;;;;;;;7.10;59.40;;;;;;4083775;29;19930;-86
2023/05/29 03:32:40;;;;;;;;;;;7.10;59.40;;;;;;4081388;29;19914;-86
2023/05/29 03:35:03;;;;;;;;;;;7.20;59.50;;;;;;4082698;29;19922;-86
2023/05/29 03:37:24;;;;;;;;;;;7.10;59.50;;;;;;4068935;29;19933;-87
2023/05/29 03:39:45;;;;;;;;;;;7.20;59.80;;;;;;4069408;29;19946;-87
2023/05/29 03:42:05;;;;;;;;;;;7.20;59.70;;;;;;4080205;29;19919;-86
2023/05/29 03:44:26;;;;;;;;;;;7.20;59.70;;;;;;4083995;29;19942;-87
2023/05/29 03:46:47;;;;;;;;;;;7.20;59.80;;;;;;4070016;29;20716;-86
2023/05/29 03:49:08;;;;;;;;;;;7.30;60.00;;;;;;4082901;29;19949;-88
2023/05/29 03:51:29;;;;;;;;;;;7.30;60.40;;;;;;4080550;29;20221;-85
2023/05/29 03:53:50;;;;;;;;;;;7.30;60.50;;;;;;4082013;29;20002;-86
2023/05/29 03:56:10;;;;;;;;;;;7.30;61.50;;;;;;4080926;29;20398;-86
2023/05/29 03:58:31;;;;;;;;;;;7.40;60.90;;;;;;4095075;28;19918;-86
2023/05/29 04:00:52;;;;;;;;;;;7.40;60.90;;;;;;4080654;29;19946;-86
2023/05/29 04:03:13;;;;;;;;;;;7.40;61.10;;;;;;4067709;29;20017;-85
2023/05/29 04:05:34;;;;;;;;;;;7.50;61.50;;;;;;4071616;29;20003;-86
2023/05/29 04:07:55;;;;;;;;;;;7.50;61.70;;;;;;4091621;28;19919;-86
2023/05/29 04:10:16;;;;;;;;;;;7.60;61.80;;;;;;4061961;29;19923;-86
2023/05/29 04:12:37;;;;;;;;;;;7.60;61.60;;;;;;4076020;29;19975;-86
2023/05/29 04:14:58;;;;;;;;;;;7.60;61.80;;;;;;4066637;29;19923;-86
2023/05/29 04:17:19;;;;;;;;;;;7.70;62.00;;;;;;4075584;29;19918;-84
2023/05/29 04:19:43;;;;;;;;;;;7.70;62.70;;;;;;4091971;28;20586;-84
2023/05/29 04:22:04;;;;;;;;;;;7.70;62.00;;;;;;4092033;28;20130;-87
2023/05/29 04:24:25;;;;;;;;;;;7.70;62.30;;;;;;4079994;29;19919;-85
2023/05/29 04:26:46;;;;;;;;;;;7.80;62.80;;;;;;4075528;29;19922;-85
2023/05/29 04:29:12;;;;;;;;;;;7.90;62.80;;;;;;4079667;29;19954;-84
2023/05/29 04:31:33;;;;;;;;;;;7.90;62.60;;;;;;4083460;29;19903;-86
2023/05/29 04:33:54;;;;;;;;;;;7.90;62.60;;;;;;4073565;29;19919;-85
2023/05/29 04:36:16;;;;;;;;;;;7.90;63.00;;;;;;4074148;29;21240;-84
2023/05/29 04:38:37;;;;;;;;;;;8.00;63.30;;;;;;4079287;29;20530;-87
2023/05/29 04:40:58;;;;;;;;;;;8.00;63.20;;;;;;4073648;29;20003;-85
2023/05/29 04:43:19;;;;;;;;;;;8.10;63.40;;;;;;4077311;29;19915;-85
2023/05/29 04:45:42;;;;;;;;;;;8.10;63.70;;;;;;4063839;29;21260;-85
2023/05/29 04:48:04;;;;;;;;;;;8.10;63.50;;;;;;4070495;29;19927;-84
2023/05/29 04:50:24;;;;;;;;;;;8.20;63.50;;;;;;4071429;29;19933;-86
2023/05/29 04:52:45;;;;;;;;;;;8.20;63.70;;;;;;4071184;29;20354;-84
2023/05/29 04:55:06;;;;;;;;;;;8.30;64.50;;;;;;4071807;29;19923;-85
2023/05/29 04:57:27;;;;;;;;;;;8.30;64.10;;;;;;4072616;29;20239;-84
2023/05/29 04:59:48;;;;;;;;;;;8.40;64.50;;;;;;4073219;29;20462;-85
2023/05/29 05:02:09;;;;;;;;;;;8.50;65.00;;;;;;4070446;29;19929;-86
2023/05/29 05:04:30;;;;;;;;;;;8.50;64.90;;;;;;4075402;29;19982;-86
2023/05/29 05:06:51;;;;;;;;;;;8.50;65.20;;;;;;4063048;29;19924;-87
2023/05/29 05:09:12;;;;;;;;;;;8.60;65.40;;;;;;4070939;29;19922;-86
2023/05/29 05:11:33;;;;;;;;;;;8.70;65.50;;;;;;4062102;29;19923;-86
2023/05/29 05:13:54;;;;;;;;;;;8.70;65.60;;;;;;4077256;29;19915;-87
2023/05/29 05:16:15;;;;;;;;;;;8.90;65.60;;;;;;4063528;29;19975;-86
2023/05/29 05:18:35;;;;;;;;;;;8.90;65.50;;;;;;4083411;28;19922;-87
2023/05/29 05:20:56;;;;;;;;;;;9.00;66.60;;;;;;4059667;29;19919;-87
2023/05/29 05:23:17;;;;;;;;;;;9.00;66.00;;;;;;4084920;28;19926;-86
2023/05/29 05:25:38;;;;;;;;;;;9.10;66.10;;;;;;4083909;29;19923;-86
2023/05/29 05:27:59;;;;;;;;;;;9.10;66.40;;;;;;4083281;29;19934;-87
2023/05/29 05:30:20;;;;;;;;;;;9.20;66.30;;;;;;4084396;29;20014;-87
2023/05/29 05:32:41;;;;;;;;;;;9.30;66.50;;;;;;4083488;29;20420;-88
2023/05/29 05:35:03;;;;;;;;;;;9.40;67.60;;;;;;4086306;29;19915;-86
2023/05/29 05:37:24;;;;;;;;;;;9.50;66.60;;;;;;4084627;29;20523;-87
2023/05/29 05:39:44;;;;;;;;;;;9.70;66.60;;;;;;4083804;29;19946;-86
2023/05/29 05:42:05;;;;;;;;;;;9.70;66.60;;;;;;4090992;29;19943;-85
2023/05/29 05:44:26;;;;;;;;;;;9.80;66.10;;;;;;4091529;29;19919;-86
2023/05/29 05:46:47;;;;;;;;;;;9.90;65.80;;;;;;4090602;28;19919;-86
2023/05/29 05:49:08;;;;;;;;;;;10.00;65.80;;;;;;4066693;29;20592;-86
2023/05/29 05:51:28;;;;;;;;;;;10.10;66.10;;;;;;4086048;29;19926;-85
2023/05/29 05:53:49;;;;;;;;;;;10.10;65.60;;;;;;4084710;29;19919;-85
2023/05/29 05:56:10;;;;;;;;;;;10.20;65.80;;;;;;4095965;28;20006;-86
2023/05/29 05:58:31;;;;;;;;;;;10.20;65.20;;;;;;4082961;29;19942;-87
2023/05/29 06:00:54;;;;;;;;;;;10.40;66.20;;;;;;4076987;29;20392;-85
2023/05/29 06:03:15;;;;;;;;;;;10.30;64.60;;;;;;4080896;29;19919;-87
2023/05/29 06:05:37;;;;;;;;;;;10.40;64.90;;;;;;4067316;29;20003;-87
2023/05/29 06:07:58;;;;;;;;;;;10.40;64.70;;;;;;4080526;29;20642;-87
2023/05/29 06:10:19;;;;;;;;;;;10.50;64.80;;;;;;4081987;29;20013;-86
2023/05/29 06:12:40;;;;;;;;;;;10.50;64.40;;;;;;4082130;29;19947;-86
2023/05/29 06:15:00;;;;;;;;;;;10.60;64.50;;;;;;4083891;29;20302;-86
2023/05/29 06:17:22;;;;;;;;;;;10.70;65.10;;;;;;4077278;29;19914;-86
2023/05/29 06:19:43;;;;;;;;;;;10.80;65.40;;;;;;4064678;29;19922;-86
2023/05/29 06:22:04;;;;;;;;;;;10.90;64.70;;;;;;4080169;29;19918;-86
2023/05/29 06:24:25;;;;;;;;;;;10.90;64.50;;;;;;4078871;29;19914;-87
2023/05/29 06:26:46;;;;;;;;;;;11.00;64.80;;;;;;4079338;29;19922;-88
2023/05/29 06:29:07;;;;;;;;;;;11.10;64.40;;;;;;4064715;29;19927;-86
2023/05/29 06:31:28;;;;;;;;;;;11.10;63.60;;;;;;4080517;29;19915;-83
2023/05/29 06:33:50;;;;;;;;;;;11.20;63.70;;;;;;4079999;29;19914;-86
2023/05/29 06:36:11;;;;;;;;;;;11.30;63.90;;;;;;4081794;29;19921;-87
2023/05/29 06:38:32;;;;;;;;;;;11.30;63.70;;;;;;4087749;29;19914;-86
2023/05/29 06:40:53;;;;;;;;;;;11.50;63.90;;;;;;4072156;29;19963;-85
2023/05/29 06:43:13;;;;;;;;;;;11.50;64.30;;;;;;4079264;29;19926;-85
2023/05/29 06:45:34;;;;;;;;;;;11.60;62.90;;;;;;4081383;29;19915;-86
2023/05/29 06:47:55;;;;;;;;;;;11.70;62.40;;;;;;4091128;28;20284;-85
2023/05/29 06:50:16;;;;;;;;;;;11.70;62.70;;;;;;4068501;29;20394;-86
2023/05/29 06:52:37;;;;;;;;;;;11.80;63.10;;;;;;4085402;29;20303;-86
2023/05/29 06:54:58;;;;;;;;;;;11.90;62.30;;;;;;4091680;28;19970;-86
2023/05/29 06:57:18;;;;;;;;;;;11.90;61.80;;;;;;4095135;29;20017;-85
2023/05/29 06:59:39;;;;;;;;;;;12.10;61.70;;;;;;4083520;29;20570;-86
2023/05/29 07:02:00;;;;;;;;;;;12.20;61.60;;;;;;4081972;29;19923;-86
2023/05/29 07:04:21;;;;;;;;;;;12.20;61.30;;;;;;4080985;29;19942;-86
2023/05/29 07:06:42;;;;;;;;;;;12.30;61.60;;;;;;4072322;29;19915;-86
2023/05/29 07:09:03;;;;;;;;;;;12.40;61.60;;;;;;4082535;29;19926;-86
2023/05/29 07:11:26;;;;;;;;;;;12.40;60.90;;;;;;4081085;29;19915;-86
2023/05/29 07:13:46;;;;;;;;;;;12.60;60.60;;;;;;4096498;28;20022;-86
2023/05/29 07:16:07;;;;;;;;;;;12.70;60.50;;;;;;4080617;29;20027;-85
2023/05/29 07:18:28;;;;;;;;;;;12.70;60.30;;;;;;4070263;29;19934;-86
2023/05/29 07:20:49;;;;;;;;;;;12.80;60.20;;;;;;4081102;29;20008;-86
2023/05/29 07:23:10;;;;;;;;;;;12.90;59.90;;;;;;4082896;29;20035;-86
2023/05/29 07:25:31;;;;;;;;;;;13.00;59.40;;;;;;4082304;29;19918;-86
2023/05/29 07:27:51;;;;;;;;;;;13.10;59.10;;;;;;4083723;29;19925;-86
2023/05/29 07:30:12;;;;;;;;;;;13.20;58.90;;;;;;4078821;29;20398;-85
2023/05/29 07:32:33;;;;;;;;;;;13.30;58.60;;;;;;4069952;29;19915;-86
2023/05/29 07:34:55;;;;;;;;;;;13.40;58.60;;;;;;4073973;29;20322;-87
2023/05/29 07:37:18;;;;;;;;;;;13.40;57.90;;;;;;4078191;29;20442;-86
2023/05/29 07:39:39;;;;;;;;;;;13.60;57.80;;;;;;4079210;29;19914;-86
2023/05/29 07:42:03;;;;;;;;;;;13.60;56.90;;;;;;4080605;29;19950;-87
2023/05/29 07:44:24;;;;;;;;;;;13.60;55.90;;;;;;4066241;29;19922;-86
2023/05/29 07:46:45;;;;;;;;;;;13.60;54.30;;;;;;4067474;29;19959;-87
2023/05/29 07:49:06;;;;;;;;;;;13.70;54.80;;;;;;4070299;29;19982;-85
2023/05/29 07:51:27;;;;;;;;;;;13.70;54.90;;;;;;4069732;29;19935;-86
2023/05/29 07:53:48;;;;;;;;;;;13.70;54.80;;;;;;4079731;29;19927;-89
2023/05/29 07:56:09;;;;;;;;;;;13.90;54.70;;;;;;4095537;28;20047;-88
2023/05/29 07:58:30;;;;;;;;;;;13.80;54.50;;;;;;4081116;29;19958;-86
2023/05/29 08:00:50;;;;;;;;;;;13.90;54.40;;;;;;4079365;29;20479;-86
2023/05/29 08:03:11;;;;;;;;;;;13.90;53.90;;;;;;4076917;29;19919;-87
2023/05/29 08:05:32;;;;;;;;;;;14.10;54.60;;;;;;4085461;29;19915;-87
2023/05/29 08:07:53;;;;;;;;;;;14.10;54.50;;;;;;4079185;29;19921;-86
2023/05/29 08:10:14;;;;;;;;;;;14.10;54.20;;;;;;4081774;29;19919;-86
2023/05/29 08:12:35;;;;;;;;;;;14.20;54.30;;;;;;4091989;28;19915;-87
2023/05/29 08:14:56;;;;;;;;;;;14.30;54.30;;;;;;4077288;29;19927;-88
2023/05/29 08:17:17;;;;;;;;;;;14.40;53.80;;;;;;4080604;29;19921;-88
2023/05/29 08:19:37;;;;;;;;;;;14.40;53.20;;;;;;4079888;29;19915;-85
2023/05/29 08:21:58;;;;;;;;;;;14.60;53.60;;;;;;4078866;29;19919;-89
2023/05/29 08:24:20;;;;;;;;;;;14.60;53.00;;;;;;4081083;29;19926;-86
2023/05/29 08:26:41;;;;;;;;;;;14.70;52.80;;;;;;4081887;29;19937;-87
2023/05/29 08:29:02;;;;;;;;;;;14.70;52.40;;;;;;4065882;29;19950;-87
2023/05/29 08:31:26;;;;;;;;;;;14.80;51.80;;;;;;4065188;29;20875;-88
2023/05/29 08:33:47;;;;;;;;;;;14.90;52.30;;;;;;4080661;29;19919;-88
2023/05/29 08:36:08;;;;;;;;;;;15.00;51.80;;;;;;4067921;29;19915;-87
2023/05/29 08:38:29;;;;;;;;;;;15.10;50.80;;;;;;4079367;29;19919;-90
2023/05/29 08:40:50;;;;;;;;;;;15.10;49.50;;;;;;4080807;29;19961;-87
2023/05/29 08:43:21;;;;;;;;;;;15.20;49.00;;;;;;4090956;28;19925;-87
2023/05/29 08:45:43;;;;;;;;;;;15.20;48.30;;;;;;4079895;29;19937;-88
2023/05/29 08:48:05;;;;;;;;;;;15.30;48.20;;;;;;4082605;29;19930;-87
2023/05/29 08:50:26;;;;;;;;;;;15.40;48.40;;;;;;4079456;29;19919;-85
2023/05/29 08:52:47;;;;;;;;;;;15.40;47.70;;;;;;4071222;29;21516;-87
2023/05/29 08:55:08;;;;;;;;;;;15.40;46.70;;;;;;4082106;29;19950;-86
2023/05/29 08:57:30;;;;;;;;;;;15.50;47.00;;;;;;4080001;29;20379;-87
2023/05/29 08:59:51;;;;;;;;;;;15.50;46.40;;;;;;4064757;29;19967;-86
2023/05/29 09:02:13;;;;;;;;;;;15.50;46.30;;;;;;4065928;29;19926;-89
2023/05/29 09:04:34;;;;;;;;;;;15.60;45.90;;;;;;4076152;29;19915;-87
2023/05/29 09:06:55;;;;;;;;;;;15.70;46.40;;;;;;4076316;29;20053;-87
2023/05/29 09:09:16;;;;;;;;;;;15.60;45.50;;;;;;4093743;28;19923;-87
2023/05/29 09:11:37;;;;;;;;;;;15.70;43.80;;;;;;4079742;29;19922;-87
2023/05/29 09:13:59;;;;;;;;;;;15.70;45.70;;;;;;4062669;29;19916;-89
2023/05/29 09:16:20;;;;;;;;;;;15.70;45.10;;;;;;4075807;29;19950;-87
2023/05/29 09:18:45;;;;;;;;;;;15.80;44.70;;;;;;4076111;29;19998;-87
2023/05/29 09:21:08;;;;;;;;;;;15.90;45.00;;;;;;4068649;29;20281;-86
2023/05/29 09:23:29;;;;;;;;;;;15.90;45.00;;;;;;4079336;29;19922;-88
2023/05/29 09:25:53;;;;;;;;;;;15.90;45.00;;;;;;4074542;29;19925;-87
2023/05/29 09:28:18;;;;;;;;;;;16.00;43.90;;;;;;4076642;29;19923;-87
2023/05/29 09:30:40;;;;;;;;;;;16.00;44.00;;;;;;4080598;29;19922;-87
2023/05/29 09:33:01;;;;;;;;;;;16.10;43.70;;;;;;4065662;29;20006;-87
2023/05/29 09:35:22;;;;;;;;;;;16.10;44.40;;;;;;4090210;29;19950;-86
2023/05/29 09:37:43;;;;;;;;;;;16.20;44.50;;;;;;4078075;29;19919;-87
2023/05/29 09:40:05;;;;;;;;;;;16.20;44.50;;;;;;4078306;29;19951;-88
2023/05/29 09:42:26;;;;;;;;;;;16.20;44.00;;;;;;4075452;29;20734;-86
2023/05/29 09:44:53;;;;;;;;;;;16.30;44.00;;;;;;4079393;29;19922;-87
2023/05/29 09:47:15;;;;;;;;;;;16.30;43.40;;;;;;4076552;29;20362;-90
2023/05/29 09:49:40;;;;;;;;;;;16.40;43.20;;;;;;4077476;29;19983;-88
2023/05/29 09:52:01;;;;;;;;;;;16.40;42.10;;;;;;4080506;29;19990;-88
2023/05/29 09:54:22;;;;;;;;;;;16.50;43.40;;;;;;4078956;29;19922;-87
2023/05/29 09:56:43;;;;;;;;;;;16.50;43.00;;;;;;4073679;29;19922;-87
2023/05/29 09:59:05;;;;;;;;;;;16.50;40.50;;;;;;4078492;29;19996;-86
2023/05/29 10:01:26;;;;;;;;;;;16.50;42.00;;;;;;4074478;29;20002;-86
2023/05/29 10:03:47;;;;;;;;;;;16.60;42.20;;;;;;4068286;29;19923;-86
2023/05/29 10:06:11;;;;;;;;;;;16.60;42.90;;;;;;4077941;29;19915;-87
2023/05/29 10:08:36;;;;;;;;;;;16.60;41.70;;;;;;4064099;29;19937;-87
2023/05/29 10:11:09;;;;;;;;;;;16.70;42.40;;;;;;4075055;29;19919;-87
2023/05/29 10:13:36;;;;;;;;;;;16.70;42.80;;;;;;4077241;29;19915;-89
2023/05/29 10:15:58;;;;;;;;;;;16.70;43.10;;;;;;4079730;29;19947;-87
2023/05/29 10:18:35;;;;;;;;;;;16.80;42.90;;;;;;4078296;29;19934;-88
2023/05/29 10:20:57;;;;;;;;;;;16.80;43.60;;;;;;4067818;29;20005;-87
2023/05/29 10:23:22;;;;;;;;;;;16.80;40.40;;;;;;4066577;29;19923;-86
2023/05/29 10:25:44;;;;;;;;;;;16.80;40.60;;;;;;4079667;29;19935;-87
2023/05/29 10:28:05;;;;;;;;;;;16.90;41.00;;;;;;4094095;28;20141;-86
2023/05/29 10:30:33;;;;;;;;;;;17.00;41.70;;;;;;4069498;29;19954;-87
2023/05/29 10:33:13;;;;;;;;;;;16.90;40.60;;;;;;4082375;29;19974;-87
2023/05/29 10:35:42;;;;;;;;;;;17.00;41.20;;;;;;4082965;29;19950;-86
2023/05/29 10:38:10;;;;;;;;;;;17.00;40.10;;;;;;4066750;29;20047;-87
2023/05/29 10:40:31;;;;;;;;;;;17.00;40.30;;;;;;4085190;29;20451;-88
2023/05/29 10:42:54;;;;;;;;;;;17.00;40.30;;;;;;4080157;29;20194;-86
2023/05/29 10:45:37;;;;;;;;;;;17.10;39.60;;;;;;4095754;28;19915;-88
2023/05/29 10:48:06;;;;;;;;;;;17.10;40.30;;;;;;4094339;28;19918;-86
2023/05/29 10:50:38;;;;;;;;;;;17.20;39.60;;;;;;4083804;29;19974;-87
2023/05/29 10:52:58;;;;;;;;;;;17.20;39.70;;;;;;4083983;29;19934;-89
2023/05/29 10:55:33;;;;;;;;;;;17.20;40.70;;;;;;4068899;29;19915;-88
2023/05/29 10:57:54;;;;;;;;;;;17.30;40.30;;;;;;4080938;29;19920;-88
2023/05/29 11:00:18;;;;;;;;;;;17.30;40.80;;;;;;4068804;29;19931;-87
2023/05/29 11:02:40;;;;;;;;;;;17.40;40.50;;;;;;4068728;29;19986;-88
2023/05/29 11:05:20;;;;;;;;;;;17.40;38.90;;;;;;4071436;29;20659;-88
2023/05/29 11:07:52;;;;;;;;;;;17.50;38.90;;;;;;4084005;29;19922;-87
2023/05/29 11:10:16;;;;;;;;;;;17.50;39.40;;;;;;4069910;29;19929;-86
2023/05/29 11:12:55;;;;;;;;;;;17.60;39.90;;;;;;4078956;29;20467;-88
2023/05/29 11:15:16;;;;;;;;;;;17.60;39.50;;;;;;4081904;29;20125;-87
2023/05/29 11:17:36;;;;;;;;;;;17.60;39.10;;;;;;4083048;29;19979;-87
2023/05/29 11:20:00;;;;;;;;;;;17.60;38.60;;;;;;4095630;28;19921;-87
2023/05/29 11:22:23;;;;;;;;;;;17.70;38.70;;;;;;4069677;29;19962;-87
2023/05/29 11:24:44;;;;;;;;;;;17.70;37.60;;;;;;4081889;29;20040;-88
2023/05/29 11:27:07;;;;;;;;;;;17.70;37.40;;;;;;4074715;29;19947;-88
2023/05/29 11:29:28;;;;;;;;;;;17.80;35.90;;;;;;4089908;29;20445;-85
2023/05/29 11:31:56;;;;;;;;;;;17.80;37.00;;;;;;4078049;29;19923;-86
2023/05/29 11:34:17;;;;;;;;;;;17.80;38.20;;;;;;4087648;29;20010;-88
2023/05/29 11:36:38;;;;;;;;;;;17.90;38.50;;;;;;4090456;29;19911;-84
2023/05/29 11:39:00;;;;;;;;;;;17.90;38.80;;;;;;4075950;29;19915;-86
2023/05/29 11:41:21;;;;;;;;;;;18.00;37.40;;;;;;4080368;29;19914;-86
2023/05/29 11:43:43;;;;;;;;;;;18.00;37.20;;;;;;4067544;29;19915;-86
2023/05/29 11:46:17;;;;;;;;;;;18.10;35.70;;;;;;4080207;29;19922;-85
2023/05/29 11:48:44;;;;;;;;;;;18.10;36.20;;;;;;4078205;29;19919;-87
2023/05/29 11:51:06;;;;;;;;;;;18.20;35.50;;;;;;4063745;29;19997;-86
2023/05/29 11:53:27;;;;;;;;;;;18.30;36.10;;;;;;4063713;29;20103;-87
2023/05/29 11:55:48;;;;;;;;;;;18.20;36.50;;;;;;4075399;29;21430;-86
2023/05/29 11:58:09;;;;;;;;;;;18.30;37.20;;;;;;4064759;29;20413;-89
2023/05/29 12:00:31;;;;;;;;;;;18.30;37.30;;;;;;4078148;29;19915;-86
2023/05/29 12:02:52;;;;;;;;;;;18.30;37.00;;;;;;4090234;28;20556;-87
2023/05/29 12:05:14;;;;;;;;;;;18.40;36.40;;;;;;4065252;29;19919;-86
2023/05/29 12:07:36;;;;;;;;;;;18.40;36.60;;;;;;4089882;29;19965;-86
2023/05/29 12:09:59;;;;;;;;;;;18.40;35.10;;;;;;4061537;29;19927;-86
2023/05/29 12:12:20;;;;;;;;;;;18.40;36.50;;;;;;4061622;29;20039;-85
2023/05/29 12:14:41;;;;;;;;;;;18.50;36.30;;;;;;4064580;29;20347;-88
2023/05/29 12:17:02;;;;;;;;;;;18.50;35.80;;;;;;4075842;29;19947;-87
2023/05/29 12:19:23;;;;;;;;;;;18.50;33.40;;;;;;4075055;29;20295;-88
2023/05/29 12:21:44;;;;;;;;;;;18.50;31.80;;;;;;4077469;29;21177;-88
2023/05/29 12:24:05;;;;;;;;;;;18.60;33.60;;;;;;4076717;29;19915;-88
2023/05/29 12:26:26;;;;;;;;;;;18.60;33.30;;;;;;4074418;29;19915;-89
2023/05/29 12:28:48;;;;;;;;;;;18.70;32.50;;;;;;4068314;29;19927;-87
2023/05/29 12:31:09;;;;;;;;;;;18.70;31.00;;;;;;4082357;29;19918;-88
2023/05/29 12:33:31;;;;;;;;;;;18.80;34.10;;;;;;4079320;29;19941;-87
2023/05/29 12:35:52;;;;;;;;;;;18.80;33.00;;;;;;4076477;29;19929;-88
2023/05/29 12:38:13;;;;;;;;;;;18.80;32.20;;;;;;4083480;29;19926;-88
2023/05/29 12:40:34;;;;;;;;;;;18.80;30.80;;;;;;4077294;29;19945;-86
2023/05/29 12:42:59;;;;;;;;;;;18.80;32.00;;;;;;4080747;29;19943;-85
2023/05/29 12:45:21;;;;;;;;;;;18.90;31.80;;;;;;4080060;29;19974;-87
2023/05/29 12:47:54;;;;;;;;;;;18.90;32.60;;;;;;4082187;29;19927;-86
2023/05/29 12:50:34;;;;;;;;;;;18.90;32.30;;;;;;4079240;29;19931;-87
2023/05/29 12:52:57;;;;;;;;;;;18.90;30.90;;;;;;4077276;29;19954;-87
2023/05/29 12:55:17;;;;;;;;;;;19.00;32.60;;;;;;4075079;29;19923;-86
2023/05/29 12:57:39;;;;;;;;;;;19.00;32.60;;;;;;4075676;29;19921;-86
2023/05/29 13:00:00;;;;;;;;;;;19.00;32.50;;;;;;4077602;29;19971;-88
2023/05/29 13:02:21;;;;;;;;;;;19.10;32.10;;;;;;4080433;29;19919;-87
2023/05/29 13:04:42;;;;;;;;;;;19.10;31.40;;;;;;4075878;29;19922;-87
2023/05/29 13:07:02;;;;;;;;;;;19.10;31.40;;;;;;4080187;29;19922;-89
2023/05/29 13:09:23;;;;;;;;;;;19.10;30.40;;;;;;4089411;29;19942;-87
2023/05/29 13:11:44;;;;;;;;;;;19.20;31.70;;;;;;4071781;29;20449;-85
2023/05/29 13:14:05;;;;;;;;;;;19.20;31.10;;;;;;4083458;29;19914;-85
2023/05/29 13:16:26;;;;;;;;;;;19.20;31.20;;;;;;4069404;29;20038;-85
2023/05/29 13:18:47;;;;;;;;;;;19.20;30.20;;;;;;4082333;29;19919;-87
2023/05/29 13:21:08;;;;;;;;;;;19.20;29.00;;;;;;4088433;29;20001;-87
2023/05/29 13:23:28;;;;;;;;;;;19.20;29.10;;;;;;4061237;29;20304;-83
2023/05/29 13:25:49;;;;;;;;;;;19.20;29.40;;;;;;4074760;29;19925;-87
2023/05/29 13:28:10;;;;;;;;;;;19.20;29.70;;;;;;4087292;28;20013;-84
2023/05/29 13:30:31;;;;;;;;;;;19.20;30.20;;;;;;4075141;29;19986;-84
2023/05/29 13:32:52;;;;;;;;;;;19.20;30.50;;;;;;4064800;29;19990;-85
2023/05/29 13:35:13;;;;;;;;;;;19.20;29.70;;;;;;4079518;29;19921;-85
2023/05/29 13:37:36;;;;;;;;;;;19.20;29.60;;;;;;4081464;29;20198;-86
2023/05/29 13:39:57;;;;;;;;;;;19.20;29.40;;;;;;4079574;29;19926;-84
2023/05/29 13:42:18;;;;;;;;;;;19.20;29.70;;;;;;4067990;29;19943;-87
2023/05/29 13:44:39;;;;;;;;;;;19.20;29.10;;;;;;4078261;29;19919;-87
2023/05/29 13:46:59;;;;;;;;;;;19.30;29.70;;;;;;4077587;29;21698;-85
2023/05/29 13:49:20;;;;;;;;;;;19.20;30.00;;;;;;4067302;29;20384;-87
2023/05/29 13:51:41;;;;;;;;;;;19.20;30.60;;;;;;4075901;29;19916;-87
2023/05/29 13:54:03;;;;;;;;;;;19.30;30.10;;;;;;4079754;29;19915;-85
2023/05/29 13:56:26;;;;;;;;;;;19.30;30.10;;;;;;4077777;29;19958;-91